Time;durP1;ratioP1;P1;durP2;ratioP2;P2;SDS_P1;SDS_P2;PMS_P1;PMS_P2;Temp;Humidity;BMP_temperature;BMP_pressure;BME280_temperature;BME280_humidity;BME280_pressure;Samples;Min_cycle;Max_cycle;Signal;HPM_P1;HPM_P2
2022/09/09 00:02:07;;;;;;;4.53;2.15;;;;;;;15.56;100.00;100702.41;2611204;36;20038;-48
2022/09/09 00:04:40;;;;;;;3.33;1.90;;;;;;;15.57;100.00;100706.84;2611973;36;20030;-51
2022/09/09 00:07:16;;;;;;;5.60;1.77;;;;;;;15.62;100.00;100709.91;2611445;36;20034;-55
2022/09/09 00:09:49;;;;;;;3.55;2.05;;;;;;;15.58;100.00;100697.69;2610921;36;20027;-53
2022/09/09 00:12:27;;;;;;;2.53;1.95;;;;;;;15.56;100.00;100691.56;2611357;36;20667;-51
2022/09/09 00:14:59;;;;;;;4.38;2.28;;;;;;;15.54;100.00;100688.19;2612393;36;20042;-53
2022/09/09 00:17:39;;;;;;;3.38;1.85;;;;;;;15.52;100.00;100690.25;2611524;36;20038;-55
2022/09/09 00:20:16;;;;;;;3.45;1.95;;;;;;;15.42;100.00;100674.16;2611236;31;20085;-55
2022/09/09 00:22:50;;;;;;;2.30;1.63;;;;;;;15.51;100.00;100670.41;2614337;36;20046;-53
2022/09/09 00:25:26;;;;;;;5.05;1.90;;;;;;;15.38;100.00;100673.63;2614868;36;20030;-52
2022/09/09 00:27:54;;;;;;;3.72;1.80;;;;;;;15.45;100.00;100673.81;2612890;36;20069;-50
2022/09/09 00:30:25;;;;;;;2.30;1.50;;;;;;;15.50;100.00;100676.00;2611300;31;20523;-49
2022/09/09 00:32:58;;;;;;;3.20;1.52;;;;;;;15.40;100.00;100670.78;2610995;36;20299;-49
2022/09/09 00:35:32;;;;;;;3.85;1.60;;;;;;;15.48;100.00;100672.63;2614911;31;20439;-50
2022/09/09 00:38:04;;;;;;;5.95;1.85;;;;;;;15.51;100.00;100672.28;2613708;36;20081;-51
2022/09/09 00:40:36;;;;;;;2.13;1.35;;;;;;;15.61;100.00;100664.78;2612167;36;20081;-52
2022/09/09 00:43:22;;;;;;;2.20;1.38;;;;;;;15.53;100.00;100667.50;2611245;36;20042;-50
2022/09/09 00:46:26;;;;;;;2.20;1.20;;;;;;;15.54;100.00;100671.91;2612954;36;20046;-49
2022/09/09 00:49:02;;;;;;;2.03;1.23;;;;;;;15.49;100.00;100672.44;2614268;36;20081;-49
2022/09/09 00:51:46;;;;;;;2.10;1.38;;;;;;;15.44;100.00;100669.38;2615069;36;20027;-48
2022/09/09 00:54:38;;;;;;;2.88;1.42;;;;;;;15.45;100.00;100681.09;2615093;36;20038;-53
2022/09/09 00:57:27;;;;;;;3.13;1.65;;;;;;;15.52;100.00;100676.69;2615208;31;20038;-51
2022/09/09 01:00:03;;;;;;;6.22;1.92;;;;;;;15.35;100.00;100673.16;2614873;36;20037;-50
2022/09/09 01:02:38;;;;;;;3.00;2.08;;;;;;;15.42;100.00;100675.00;2615451;36;20665;-52
2022/09/09 01:05:14;;;;;;;2.80;2.35;;;;;;;15.56;100.00;100680.72;2615091;36;20042;-49
2022/09/09 01:07:50;;;;;;;3.13;2.08;;;;;;;15.53;100.00;100676.50;2615682;36;20031;-50
2022/09/09 01:10:30;;;;;;;4.45;2.25;;;;;;;15.52;100.00;100672.09;2615884;36;20465;-51
2022/09/09 01:13:03;;;;;;;4.22;2.40;;;;;;;15.50;100.00;100682.28;2616018;36;20444;-50
2022/09/09 01:15:34;;;;;;;4.35;2.88;;;;;;;15.48;100.00;100689.72;2611716;36;20069;-52
2022/09/09 01:18:09;;;;;;;3.97;2.63;;;;;;;15.54;100.00;100688.19;2611457;31;20516;-49
2022/09/09 01:20:45;;;;;;;4.47;2.55;;;;;;;15.55;100.00;100685.31;2612117;36;20581;-51
2022/09/09 01:23:31;;;;;;;4.97;2.90;;;;;;;15.42;100.00;100682.28;2611372;31;20094;-52
2022/09/09 01:26:25;;;;;;;4.90;3.03;;;;;;;15.38;100.00;100689.91;2611163;36;20033;-53
2022/09/09 01:28:55;;;;;;;4.40;3.50;;;;;;;15.44;100.00;100682.13;2611312;36;20061;-51
2022/09/09 01:31:28;;;;;;;5.97;2.80;;;;;;;15.48;100.00;100680.75;2610967;31;20032;-50
2022/09/09 01:33:57;;;;;;;5.50;3.55;;;;;;;15.57;100.00;100674.28;2611995;36;20030;-53
2022/09/09 01:36:33;;;;;;;5.67;3.50;;;;;;;15.56;100.00;100680.72;2612403;36;20556;-54
2022/09/09 01:39:02;;;;;;;8.75;4.00;;;;;;;15.70;100.00;100679.19;2611684;31;20057;-53
2022/09/09 01:41:33;;;;;;;5.25;3.75;;;;;;;15.70;100.00;100679.19;2610544;36;20026;-52
2022/09/09 01:44:01;;;;;;;7.13;3.40;;;;;;;15.92;100.00;100670.28;2611608;36;20041;-50
2022/09/09 01:46:31;;;;;;;5.13;3.80;;;;;;;15.91;100.00;100667.75;2612321;36;20061;-52
2022/09/09 01:49:01;;;;;;;7.53;3.85;;;;;;;15.92;100.00;100674.88;2613744;36;20451;-53
2022/09/09 01:51:33;;;;;;;5.22;3.88;;;;;;;15.90;100.00;100671.47;2613777;36;20042;-54
2022/09/09 01:54:02;;;;;;;7.78;3.65;;;;;;;15.80;100.00;100671.72;2612496;36;20065;-54
2022/09/09 01:56:45;;;;;;;8.48;4.15;;;;;;;15.87;100.00;100671.84;2615618;36;20089;-55
2022/09/09 01:59:29;;;;;;;7.75;4.50;;;;;;;15.75;100.00;100669.50;2613032;36;20043;-53
2022/09/09 02:02:10;;;;;;;8.15;4.47;;;;;;;15.77;100.00;100663.91;2610860;36;20051;-55
2022/09/09 02:04:44;;;;;;;7.38;4.72;;;;;;;15.69;100.00;100663.91;2605380;31;20539;-53
2022/09/09 02:07:28;;;;;;;6.78;4.53;;;;;;;15.69;100.00;100669.34;2606442;36;20038;-54
2022/09/09 02:10:04;;;;;;;6.57;4.53;;;;;;;15.65;100.00;100662.56;2612288;36;20042;-51
2022/09/09 02:12:35;;;;;;;6.10;4.57;;;;;;;15.65;100.00;100666.13;2614193;36;20034;-52
2022/09/09 02:15:13;;;;;;;7.13;4.38;;;;;;;15.63;100.00;100668.16;2613608;36;20034;-53
2022/09/09 02:17:43;;;;;;;9.02;4.85;;;;;;;15.58;100.00;100654.28;2613907;36;20034;-55
2022/09/09 02:20:15;;;;;;;8.75;4.82;;;;;;;15.52;100.00;100657.69;2614218;36;20069;-54
2022/09/09 02:22:46;;;;;;;7.47;4.45;;;;;;;15.53;100.00;100664.78;2615101;31;20035;-54
2022/09/09 02:25:19;;;;;;;10.63;5.43;;;;;;;15.40;100.00;100649.91;2614804;36;20093;-52
2022/09/09 02:27:53;;;;;;;8.50;5.30;;;;;;;15.46;100.00;100653.81;2615346;36;20068;-52
2022/09/09 02:30:22;;;;;;;14.63;5.55;;;;;;;15.44;100.00;100649.56;2614384;31;20041;-53
2022/09/09 02:32:56;;;;;;;7.15;4.55;;;;;;;15.51;100.00;100654.13;2614972;36;20036;-52
2022/09/09 02:35:28;;;;;;;7.63;4.90;;;;;;;15.53;100.00;100649.38;2615074;36;20045;-55
2022/09/09 02:37:59;;;;;;;7.72;4.85;;;;;;;15.36;100.00;100643.16;2614279;36;20129;-51
2022/09/09 02:40:27;;;;;;;7.63;5.38;;;;;;;15.42;100.00;100642.44;2613822;36;20448;-53
2022/09/09 02:42:59;;;;;;;8.00;5.03;;;;;;;15.51;100.00;100651.41;2612596;36;20037;-54
2022/09/09 02:45:35;;;;;;;8.05;5.40;;;;;;;15.35;100.00;100656.88;2615663;36;20050;-55
2022/09/09 02:48:10;;;;;;;9.88;4.95;;;;;;;15.41;100.00;100656.19;2614928;36;20086;-55
2022/09/09 02:50:43;;;;;;;7.53;4.35;;;;;;;15.51;100.00;100656.00;2614887;36;20026;-54
2022/09/09 02:53:20;;;;;;;8.45;5.28;;;;;;;15.46;100.00;100648.38;2616483;36;20519;-52
2022/09/09 02:55:51;;;;;;;7.72;4.28;;;;;;;15.49;100.00;100650.75;2615906;36;20409;-55
2022/09/09 02:58:22;;;;;;;10.15;4.78;;;;;;;15.42;100.00;100641.59;2616733;36;20534;-52
2022/09/09 03:00:52;;;;;;;6.18;4.10;;;;;;;15.46;100.00;100652.94;2615009;36;20057;-50
2022/09/09 03:03:22;;;;;;;7.75;4.30;;;;;;;15.51;100.00;100639.72;2616071;36;20029;-55
2022/09/09 03:05:50;;;;;;;;;;;;;;;15.49;100.00;100647.16;2615917;36;20126;-54
2022/09/09 03:08:18;;;;;;;10.07;5.10;;;;;;;15.45;100.00;100646.69;2615827;31;20340;-55
2022/09/09 03:10:47;;;;;;;9.23;4.85;;;;;;;15.40;100.00;100649.09;2614586;31;20069;-54
2022/09/09 03:13:15;;;;;;;8.87;4.87;;;;;;;15.25;100.00;100643.50;2615162;36;20031;-52
2022/09/09 03:15:48;;;;;;;9.10;4.97;;;;;;;15.32;100.00;100641.78;2615818;36;20035;-50
2022/09/09 03:18:16;;;;;;;8.07;4.90;;;;;;;15.37;100.00;100643.97;2615046;36;20026;-55
2022/09/09 03:20:46;;;;;;;11.07;5.00;;;;;;;15.37;100.00;100647.56;2615200;36;20038;-54
2022/09/09 03:23:14;;;;;;;9.65;5.40;;;;;;;15.30;100.00;100651.97;2615699;36;20054;-54
2022/09/09 03:25:48;;;;;;;9.15;5.10;;;;;;;15.27;100.00;100651.44;2616032;36;20057;-55
2022/09/09 03:28:16;;;;;;;10.38;5.78;;;;;;;15.30;100.00;100654.69;2615614;36;20026;-58
2022/09/09 03:30:48;;;;;;;9.65;5.85;;;;;;;15.27;100.00;100652.31;2615308;36;20069;-51
2022/09/09 03:33:17;;;;;;;8.73;5.78;;;;;;;15.24;100.00;100649.97;2614643;36;20599;-53
2022/09/09 03:35:48;;;;;;;12.13;5.53;;;;;;;15.21;100.00;100644.88;2614370;36;20057;-54
2022/09/09 03:38:17;;;;;;;10.95;5.65;;;;;;;15.12;100.00;100648.59;2616014;36;20549;-54
2022/09/09 03:40:52;;;;;;;10.38;6.07;;;;;;;15.17;100.00;100647.06;2614805;36;20670;-54
2022/09/09 03:43:21;;;;;;;9.18;5.30;;;;;;;15.15;100.00;100650.97;2615911;36;20117;-54
2022/09/09 03:45:52;;;;;;;9.13;5.67;;;;;;;15.16;100.00;100647.25;2613790;36;20539;-56
2022/09/09 03:48:21;;;;;;;10.80;5.88;;;;;;;15.17;100.00;100638.09;2614908;36;20163;-53
2022/09/09 03:50:51;;;;;;;9.45;5.75;;;;;;;15.28;100.00;100642.31;2615682;36;20023;-54
2022/09/09 03:53:19;;;;;;;;;;;;;;;15.36;100.00;100648.56;2615477;36;20042;-54
2022/09/09 03:55:48;;;;;;;11.18;5.90;;;;;;;15.35;100.00;100640.59;2614512;31;20479;-52
2022/09/09 03:58:18;;;;;;;9.27;6.50;;;;;;;15.26;100.00;100641.66;2614780;36;20513;-55
2022/09/09 04:00:55;;;;;;;11.32;6.07;;;;;;;15.48;100.00;100640.06;2614182;36;20042;-54
2022/09/09 04:03:27;;;;;;;8.48;5.72;;;;;;;15.49;100.00;100628.19;2612426;36;20423;-56
2022/09/09 04:05:55;;;;;;;8.95;6.10;;;;;;;15.60;100.00;100630.53;2612777;36;20034;-55
2022/09/09 04:08:25;;;;;;;10.65;5.93;;;;;;;15.45;100.00;100624.16;2613911;36;20459;-53
2022/09/09 04:10:53;;;;;;;;;;;;;;;15.46;100.00;100625.81;2612645;36;20038;-53
2022/09/09 04:13:22;;;;;;;10.90;5.45;;;;;;;15.35;100.00;100630.59;2613999;36;19947;-55
2022/09/09 04:15:54;;;;;;;11.07;5.88;;;;;;;15.52;100.00;100625.97;2613917;36;20638;-53
2022/09/09 04:18:26;;;;;;;7.70;6.10;;;;;;;15.47;100.00;100627.53;2613810;36;20046;-56
2022/09/09 04:20:56;;;;;;;9.50;6.22;;;;;;;15.45;100.00;100626.88;2613500;31;20058;-55
2022/09/09 04:23:28;;;;;;;11.18;5.68;;;;;;;15.48;100.00;100623.81;2613221;36;20030;-53
2022/09/09 04:25:58;;;;;;;9.85;6.15;;;;;;;15.46;100.00;100617.69;2612443;36;20038;-53
2022/09/09 04:28:29;;;;;;;9.57;6.13;;;;;;;15.45;100.00;100618.72;2613082;36;20137;-54
2022/09/09 04:30:58;;;;;;;10.40;5.93;;;;;;;15.37;100.00;100620.44;2612787;36;20030;-52
2022/09/09 04:33:31;;;;;;;7.68;5.82;;;;;;;15.28;100.00;100618.75;2612918;36;20080;-52
2022/09/09 04:35:59;;;;;;;10.13;5.88;;;;;;;15.20;100.00;100621.50;2612774;36;20574;-52
2022/09/09 04:38:27;;;;;;;8.73;5.23;;;;;;;15.32;100.00;100625.53;2613590;36;20061;-53
2022/09/09 04:40:56;;;;;;;8.73;5.25;;;;;;;15.28;100.00;100629.59;2614524;31;20772;-54
2022/09/09 04:43:25;;;;;;;9.77;5.82;;;;;;;15.27;100.00;100622.50;2615110;31;20447;-56
2022/09/09 04:45:54;;;;;;;9.10;5.88;;;;;;;15.22;100.00;100628.44;2615433;36;20125;-51
2022/09/09 04:48:24;;;;;;;9.80;5.38;;;;;;;15.29;100.00;100625.88;2613731;36;20034;-51
2022/09/09 04:51:03;;;;;;;11.82;6.40;;;;;;;15.33;100.00;100624.50;2613706;36;20026;-53
2022/09/09 04:53:33;;;;;;;11.20;6.00;;;;;;;15.37;100.00;100616.84;2614390;36;20042;-56
2022/09/09 04:56:06;;;;;;;9.38;6.28;;;;;;;15.48;100.00;100615.66;2614429;36;20411;-53
2022/09/09 04:58:35;;;;;;;11.05;5.90;;;;;;;15.36;100.00;100615.19;2615731;36;20035;-52
2022/09/09 05:01:08;;;;;;;10.00;6.25;;;;;;;15.42;100.00;100619.91;2614928;36;20431;-55
2022/09/09 05:03:38;;;;;;;11.35;6.93;;;;;;;15.45;100.00;100621.44;2614389;36;20038;-54
2022/09/09 05:06:11;;;;;;;12.20;6.30;;;;;;;15.58;100.00;100616.31;2614708;31;20057;-55
2022/09/09 05:08:40;;;;;;;11.85;6.53;;;;;;;15.73;100.00;100609.09;2613682;36;20524;-54
2022/09/09 05:11:16;;;;;;;9.93;5.97;;;;;;;16.09;100.00;100605.06;2613406;36;20029;-54
2022/09/09 05:13:45;;;;;;;12.45;6.50;;;;;;;15.99;100.00;100597.16;2615062;36;20023;-54
2022/09/09 05:16:14;;;;;;;11.05;6.07;;;;;;;15.93;100.00;100600.59;2615123;36;20547;-56
2022/09/09 05:18:44;;;;;;;9.10;6.15;;;;;;;15.99;100.00;100597.16;2616056;54;20023;-55
2022/09/09 05:21:17;;;;;;;10.25;6.03;;;;;;;15.90;100.00;100596.34;2615092;36;20551;-55
2022/09/09 05:23:45;;;;;;;9.85;6.10;;;;;;;15.87;100.00;100599.44;2615085;36;20621;-54
2022/09/09 05:26:16;;;;;;;9.33;6.17;;;;;;;15.84;100.00;100598.91;2613989;36;20042;-56
2022/09/09 05:28:44;;;;;;;11.55;6.10;;;;;;;15.86;100.00;100599.59;2615493;36;20045;-54
2022/09/09 05:31:14;;;;;;;11.38;5.90;;;;;;;15.95;100.00;100603.97;2613900;36;20073;-53
2022/09/09 05:33:45;;;;;;;7.60;5.47;;;;;;;15.62;100.00;100609.50;2614138;36;20049;-52
2022/09/09 05:36:18;;;;;;;8.63;5.40;;;;;;;15.84;100.00;100607.06;2615279;36;20053;-51
2022/09/09 05:38:47;;;;;;;11.40;6.40;;;;;;;15.68;100.00;100606.09;2614477;36;20039;-56
2022/09/09 05:41:17;;;;;;;10.80;5.93;;;;;;;15.85;100.00;100614.19;2613983;36;20030;-53
2022/09/09 05:43:47;;;;;;;9.80;5.78;;;;;;;15.77;100.00;100609.63;2614540;36;20029;-55
2022/09/09 05:46:17;;;;;;;10.10;5.15;;;;;;;15.80;100.00;100603.88;2614113;36;20522;-55
2022/09/09 05:48:49;;;;;;;9.95;5.32;;;;;;;15.86;100.00;100599.59;2614899;36;20427;-55
2022/09/09 05:51:23;;;;;;;9.35;5.07;;;;;;;15.87;100.00;100606.72;2613573;36;20046;-53
2022/09/09 05:53:54;;;;;;;7.18;4.38;;;;;;;15.78;100.00;100605.91;2614979;36;20167;-54
2022/09/09 05:56:25;;;;;;;8.27;5.00;;;;;;;15.88;100.00;100598.38;2614193;36;20022;-52
2022/09/09 05:58:54;;;;;;;10.88;5.15;;;;;;;15.90;100.00;100595.50;2615643;36;20714;-52
2022/09/09 06:01:24;;;;;;;7.72;4.80;;;;;;;15.76;100.00;100606.03;2614852;36;20049;-53
2022/09/09 06:03:54;;;;;;;8.80;4.50;;;;;;;15.82;100.00;100612.66;2613912;31;20042;-53
2022/09/09 06:06:26;;;;;;;7.63;4.95;;;;;;;15.79;100.00;100614.91;2614400;36;20065;-53
2022/09/09 06:08:57;;;;;;;6.25;4.97;;;;;;;15.66;100.00;100618.97;2615097;31;20567;-56
2022/09/09 06:11:27;;;;;;;9.80;5.38;;;;;;;15.94;100.00;100614.00;2614132;36;20039;-54
2022/09/09 06:13:55;;;;;;;10.02;5.05;;;;;;;15.88;100.00;100605.69;2613382;36;20038;-56
2022/09/09 06:16:26;;;;;;;11.67;5.73;;;;;;;16.04;100.00;100608.31;2613317;36;20038;-53
2022/09/09 06:18:56;;;;;;;8.95;4.50;;;;;;;16.13;100.00;100613.72;2613377;36;20031;-52
2022/09/09 06:21:29;;;;;;;11.50;5.32;;;;;;;16.08;100.00;100616.97;2612473;36;20038;-52
2022/09/09 06:23:57;;;;;;;11.75;5.03;;;;;;;16.16;100.00;100613.34;2615068;36;20460;-52
2022/09/09 06:26:26;;;;;;;11.70;6.60;;;;;;;16.13;100.00;100611.84;2614643;36;20042;-55
2022/09/09 06:28:57;;;;;;;8.02;5.93;;;;;;;16.17;100.00;100607.75;2613372;36;20026;-52
2022/09/09 06:31:30;;;;;;;9.68;5.32;;;;;;;16.20;100.00;100609.25;2613866;31;20046;-52
2022/09/09 06:33:59;;;;;;;7.45;4.93;;;;;;;16.22;100.00;100615.34;2610262;36;20035;-53
2022/09/09 06:36:31;;;;;;;10.65;5.63;;;;;;;16.34;100.00;100616.66;2603491;31;20564;-52
2022/09/09 06:39:00;;;;;;;8.98;4.60;;;;;;;16.38;100.00;100607.09;2610662;36;20035;-53
2022/09/09 06:41:30;;;;;;;10.85;5.15;;;;;;;16.37;100.00;100612.69;2610928;36;20563;-53
2022/09/09 06:43:59;;;;;;;13.68;4.72;;;;;;;16.54;100.00;100608.84;2609420;36;20065;-55
2022/09/09 06:46:32;;;;;;;10.57;4.55;;;;;;;16.68;100.00;100601.78;2612292;36;20034;-55
2022/09/09 06:49:02;;;;;;;9.52;4.40;;;;;;;16.69;100.00;100605.34;2611452;36;20125;-55
2022/09/09 06:51:34;;;;;;;10.70;5.60;;;;;;;16.75;100.00;100600.00;2610252;36;20058;-55
2022/09/09 06:54:04;;;;;;;8.73;4.65;;;;;;;16.78;100.00;100596.94;2608924;36;20030;-51
2022/09/09 06:56:34;;;;;;;10.10;5.15;;;;;;;16.81;100.00;100593.00;2612329;36;20042;-54
2022/09/09 06:59:05;;;;;;;10.18;4.65;;;;;;;16.82;100.00;100595.53;2610948;36;20035;-53
2022/09/09 07:01:35;;;;;;;8.82;4.00;;;;;;;17.07;100.00;100602.66;2612756;36;20058;-51
2022/09/09 07:04:07;;;;;;;9.38;4.15;;;;;;;16.97;100.00;100606.50;2610243;36;20600;-53
2022/09/09 07:06:40;;;;;;;10.93;4.70;;;;;;;17.14;100.00;100590.84;2609325;36;20061;-52
2022/09/09 07:09:10;;;;;;;7.70;3.88;;;;;;;17.19;100.00;100600.31;2613588;36;20463;-54
2022/09/09 07:11:41;;;;;;;9.30;4.72;;;;;;;17.24;100.00;100597.88;2610149;36;20053;-53
2022/09/09 07:14:12;;;;;;;9.80;3.97;;;;;;;17.22;100.00;100595.34;2610911;31;20090;-53
2022/09/09 07:16:41;;;;;;;10.52;4.60;;;;;;;17.34;100.00;100598.44;2614171;36;20419;-54
2022/09/09 07:19:10;;;;;;;14.10;5.03;;;;;;;17.35;100.00;100600.13;2611985;36;20039;-56
2022/09/09 07:21:42;;;;;;;7.95;4.22;;;;;;;17.57;100.00;100597.53;2612013;36;20042;-54
2022/09/09 07:24:11;;;;;;;8.20;4.30;;;;;;;17.68;100.00;100597.88;2614408;36;20555;-54
2022/09/09 07:26:40;;;;;;;9.90;4.20;;;;;;;17.65;100.00;100590.09;2615625;31;20443;-56
2022/09/09 07:29:09;;;;;;;12.50;3.95;;;;;;;17.82;100.00;100604.31;2614128;36;20085;-54
2022/09/09 07:31:39;;;;;;;8.55;3.92;;;;;;;17.92;100.00;100589.59;2614732;31;20437;-55
2022/09/09 07:34:08;;;;;;;7.68;3.90;;;;;;;17.90;100.00;100588.97;2611674;36;20041;-53
2022/09/09 07:36:38;;;;;;;6.93;3.90;;;;;;;18.16;100.00;100591.97;2604241;36;20042;-54
2022/09/09 07:39:12;;;;;;;10.25;3.97;;;;;;;18.44;100.00;100588.50;2611432;36;20551;-53
2022/09/09 07:41:43;;;;;;;3.83;3.00;;;;;;;18.36;100.00;100583.19;2612825;31;20042;-56
2022/09/09 07:44:17;;;;;;;9.70;4.05;;;;;;;18.26;100.00;100601.75;2611154;36;20061;-56
2022/09/09 07:46:46;;;;;;;6.55;3.90;;;;;;;18.07;100.00;100587.69;2613125;36;20054;-55
2022/09/09 07:49:14;;;;;;;;;;;;;;;18.39;100.00;100588.25;2613238;36;20058;-56
2022/09/09 07:51:45;;;;;;;8.33;4.13;;;;;;;18.70;100.00;100587.91;2615348;36;20070;-56
2022/09/09 07:54:19;;;;;;;12.88;5.78;;;;;;;18.38;100.00;100597.47;2611990;31;20137;-56
2022/09/09 07:56:49;;;;;;;13.27;4.30;;;;;;;18.43;100.00;100596.88;2613754;36;20031;-55
2022/09/09 07:59:18;;;;;;;6.80;3.53;;;;;;;18.55;100.00;100601.63;2611595;36;20519;-54
2022/09/09 08:01:48;;;;;;;7.50;3.13;;;;;;;18.54;100.00;100599.91;2614080;36;20078;-53
2022/09/09 08:04:19;;;;;;;4.03;2.85;;;;;;;18.68;100.00;100602.75;2611991;36;20034;-55
2022/09/09 08:06:49;;;;;;;8.73;3.63;;;;;;;18.48;100.00;100614.31;2612284;36;20042;-56
2022/09/09 08:09:20;;;;;;;9.18;3.30;;;;;;;18.47;100.00;100606.34;2611419;36;20042;-57
2022/09/09 08:11:48;;;;;;;6.88;3.25;;;;;;;18.42;100.00;100606.94;2611024;36;20038;-55
2022/09/09 08:14:17;;;;;;;4.55;2.83;;;;;;;18.20;100.00;100612.34;2612363;31;20023;-53
2022/09/09 08:16:48;;;;;;;6.85;3.53;;;;;;;18.37;100.00;100606.66;2611969;36;20030;-52
2022/09/09 08:19:16;;;;;;;8.82;3.67;;;;;;;18.38;100.00;100611.09;2611446;36;20490;-50
2022/09/09 08:21:46;;;;;;;5.60;2.90;;;;;;;18.64;100.00;100606.91;2612040;36;20560;-55
2022/09/09 08:24:16;;;;;;;5.40;2.55;;;;;;;19.19;100.00;100599.84;2612100;36;20038;-55
2022/09/09 08:26:49;;;;;;;8.75;2.97;;;;;;;19.46;100.00;100607.38;2611296;36;20186;-55
2022/09/09 08:29:18;;;;;;;7.43;3.65;;;;;;;19.58;100.00;100609.34;2613244;36;20122;-54
2022/09/09 08:31:48;;;;;;;10.10;2.92;;;;;;;19.25;100.00;100611.84;2613366;31;20070;-53
2022/09/09 08:34:19;;;;;;;6.40;2.70;;;;;;;19.29;100.00;100606.81;2613720;31;20655;-55
2022/09/09 08:36:49;;;;;;;5.85;2.53;;;;;;;18.86;100.00;100607.78;2613656;36;20051;-54
2022/09/09 08:39:19;;;;;;;5.05;2.20;;;;;;;18.88;100.00;100606.53;2612386;36;20034;-56
2022/09/09 08:42:23;;;;;;;10.00;2.50;;;;;;;18.51;100.00;100618.56;2611026;36;20042;-50
2022/09/09 08:45:14;;;;;;;4.53;2.35;;;;;;;18.55;100.00;100623.41;2606427;31;20041;-48
2022/09/09 08:47:57;;;;;;;6.35;2.40;;;;;;;18.58;100.00;100616.75;2612005;36;20542;-51
2022/09/09 08:50:28;;;;;;;6.22;2.25;;;;;;;18.71;100.00;100619.59;2608108;31;20574;-49
2022/09/09 08:53:05;;;;;;;4.47;2.20;;;;;;;18.79;100.00;100626.78;2614459;36;20432;-53
2022/09/09 08:55:43;;;;;;;4.30;2.30;;;;;;;18.37;100.00;100628.47;2613936;36;21456;-50
2022/09/09 08:58:18;;;;;;;4.45;2.13;;;;;;;18.29;100.00;100628.59;2614338;36;20555;-50
2022/09/09 09:01:01;;;;;;;4.43;2.20;;;;;;;18.60;100.00;100625.56;2611521;36;20038;-54
2022/09/09 09:03:41;;;;;;;6.28;2.28;;;;;;;18.48;100.00;100632.56;2612394;36;20134;-48
2022/09/09 09:06:19;;;;;;;6.90;1.95;;;;;;;18.38;100.00;100641.06;2615163;36;20186;-48
2022/09/09 09:08:57;;;;;;;5.97;2.20;;;;;;;18.78;100.00;100629.72;2614217;36;20039;-52
2022/09/09 09:11:26;;;;;;;10.55;2.30;;;;;;;18.94;100.00;100631.34;2615508;36;20536;-48
2022/09/09 09:14:04;;;;;;;8.90;3.50;;;;;;;18.85;100.00;100636.91;2614606;31;20052;-49
2022/09/09 09:16:36;;;;;;;6.95;2.45;;;;;;;18.59;100.00;100631.19;2616335;36;20023;-48
2022/09/09 09:19:05;;;;;;;9.77;2.38;;;;;;;18.72;100.00;100639.50;2614647;36;20069;-50
2022/09/09 09:21:41;;;;;;;6.10;2.22;;;;;;;18.46;100.00;100640.06;2613883;36;20035;-48
2022/09/09 09:24:19;;;;;;;3.40;2.10;;;;;;;18.43;100.00;100641.31;2614580;36;20034;-49
2022/09/09 09:26:48;;;;;;;7.05;2.22;;;;;;;18.56;100.00;100641.47;2613326;36;20034;-49
2022/09/09 09:29:21;;;;;;;6.47;2.60;;;;;;;18.66;100.00;100645.75;2614502;36;20586;-48
2022/09/09 09:31:54;;;;;;;6.72;2.47;;;;;;;18.74;100.00;100643.72;2615207;36;20038;-47
2022/09/09 09:34:23;;;;;;;10.77;2.60;;;;;;;18.63;100.00;100640.69;2615002;36;20026;-51
2022/09/09 09:36:56;;;;;;;7.38;2.28;;;;;;;18.50;100.00;100653.13;2615388;36;20038;-49
2022/09/09 09:39:27;;;;;;;6.68;2.17;;;;;;;18.82;100.00;100645.47;2614834;36;20073;-50
2022/09/09 09:41:57;;;;;;;6.90;2.47;;;;;;;18.39;100.00;100650.94;2614944;36;20098;-51
2022/09/09 09:44:31;;;;;;;5.28;2.33;;;;;;;18.52;100.00;100653.78;2613630;36;20543;-48
2022/09/09 09:47:10;;;;;;;5.68;2.50;;;;;;;18.56;100.00;100657.81;2614311;36;20030;-51
2022/09/09 09:49:39;;;;;;;10.18;2.47;;;;;;;18.82;100.00;100650.94;2606932;36;20047;-48
2022/09/09 09:52:08;;;;;;;5.30;1.85;;;;;;;18.59;100.00;100640.22;2606559;36;20034;-49
2022/09/09 09:54:41;;;;;;;6.30;2.40;;;;;;;18.71;100.00;100646.00;2613068;31;20092;-49
2022/09/09 09:57:12;;;;;;;6.20;2.50;;;;;;;18.83;100.00;100647.16;2615148;36;20030;-50
2022/09/09 09:59:43;;;;;;;5.13;2.10;;;;;;;18.77;100.00;100653.41;2614504;31;20048;-48
2022/09/09 10:02:20;;;;;;;5.95;2.28;;;;;;;18.67;100.00;100648.28;2615263;36;20045;-49
2022/09/09 10:04:50;;;;;;;6.57;2.35;;;;;;;18.62;100.00;100649.88;2615466;36;20031;-49
2022/09/09 10:07:21;;;;;;;6.65;2.20;;;;;;;18.86;100.00;100652.25;2614389;36;20030;-48
2022/09/09 10:09:55;;;;;;;5.80;1.88;;;;;;;18.85;100.00;100650.53;2614360;36;20089;-52
2022/09/09 10:12:36;;;;;;;5.75;2.38;;;;;;;18.74;100.00;100645.59;2613022;36;20046;-49
2022/09/09 10:15:18;;;;;;;6.63;2.10;;;;;;;18.62;100.00;100641.72;2612974;36;20034;-47
2022/09/09 10:17:57;;;;;;;7.82;2.10;;;;;;;19.05;100.00;100641.69;2608662;36;20034;-49
2022/09/09 10:20:34;;;;;;;;;;;;;;;19.03;100.00;100641.06;2612179;36;22521;-50
2022/09/09 10:23:14;;;;;;;4.75;2.03;;;;;;;19.06;100.00;100635.22;2610958;36;19962;-51
2022/09/09 10:26:00;;;;;;;9.57;2.00;;;;;;;18.89;100.00;100638.22;2610372;36;20081;-51
2022/09/09 10:28:43;;;;;;;9.38;2.67;;;;;;;18.72;100.00;100639.50;2610441;36;20559;-50
2022/09/09 10:31:25;;;;;;;5.97;2.10;;;;;;;19.01;100.00;100637.72;2610600;36;20038;-52
2022/09/09 10:34:00;;;;;;;4.47;1.80;;;;;;;19.13;100.00;100641.56;2613209;36;20035;-48
2022/09/09 10:36:30;;;;;;;5.53;1.70;;;;;;;19.01;100.00;100637.72;2612740;31;20563;-49
2022/09/09 10:39:03;;;;;;;5.90;2.53;;;;;;;19.05;100.00;100639.84;2612486;36;20034;-53
2022/09/09 10:41:48;;;;;;;9.00;2.17;;;;;;;19.13;100.00;100632.56;2610906;36;20030;-55
2022/09/09 10:44:47;;;;;;;5.05;2.10;;;;;;;19.16;100.00;100635.72;2611929;36;20110;-48
2022/09/09 10:47:33;;;;;;;3.97;1.88;;;;;;;19.24;100.00;100638.31;2609024;36;20039;-51
2022/09/09 10:50:27;;;;;;;4.55;1.80;;;;;;;19.23;100.00;100633.88;2609069;36;20725;-50
2022/09/09 10:53:04;;;;;;;5.18;1.85;;;;;;;19.50;100.00;100631.31;2603829;36;20050;-51
2022/09/09 10:55:40;;;;;;;5.47;2.08;;;;;;;19.72;100.00;100632.06;2600649;36;20459;-51
2022/09/09 10:58:14;;;;;;;3.70;2.05;;;;;;;19.31;100.00;100632.88;2609339;36;20559;-49
2022/09/09 11:00:49;;;;;;;8.02;2.20;;;;;;;18.96;100.00;100640.16;2612556;36;20479;-50
2022/09/09 11:03:25;;;;;;;7.15;2.33;;;;;;;18.94;100.00;100647.72;2610801;36;20062;-50
2022/09/09 11:05:57;;;;;;;6.47;2.47;;;;;;;19.01;100.00;100648.63;2612075;36;20499;-51
2022/09/09 11:08:28;;;;;;;8.80;2.05;;;;;;;18.86;100.00;100644.09;2613756;36;20538;-50
2022/09/09 11:11:03;;;;;;;5.20;2.30;;;;;;;18.89;100.00;100638.22;2614738;36;20030;-49
2022/09/09 11:13:41;;;;;;;8.20;2.33;;;;;;;18.70;100.00;100650.59;2611448;36;20038;-46
2022/09/09 11:16:25;;;;;;;8.93;2.60;;;;;;;18.62;100.00;100652.63;2612945;36;20061;-48
2022/09/09 11:19:00;;;;;;;7.50;2.55;;;;;;;18.53;100.00;100660.91;2611758;36;20038;-49
2022/09/09 11:21:34;;;;;;;7.43;2.65;;;;;;;18.88;100.00;100655.63;2611054;36;20058;-54
2022/09/09 11:24:05;;;;;;;9.13;2.70;;;;;;;19.10;100.00;100658.34;2614413;36;20536;-55
2022/09/09 11:26:39;;;;;;;5.95;2.58;;;;;;;19.08;100.00;100649.53;2611790;31;20034;-50
2022/09/09 11:29:27;;;;;;;6.07;2.65;;;;;;;19.30;100.00;100655.78;2614270;36;20034;-50
2022/09/09 11:32:08;;;;;;;6.20;2.50;;;;;;;18.99;100.00;100653.41;2612321;36;20035;-49
2022/09/09 11:34:53;;;;;;;4.95;1.98;;;;;;;19.06;100.00;100646.13;2612975;36;20049;-51
2022/09/09 11:37:51;;;;;;;4.57;2.30;;;;;;;19.64;100.00;100643.19;2611380;36;21173;-50
2022/09/09 11:40:25;;;;;;;6.07;2.15;;;;;;;20.10;100.00;100626.19;2609500;31;20535;-54
2022/09/09 11:43:05;;;;;;;5.15;2.35;;;;;;;20.24;100.00;100624.34;2611339;31;20662;-49
2022/09/09 11:45:35;;;;;;;7.57;2.15;;;;;;;20.38;100.00;100621.66;2613765;36;20035;-53